Time;durP1;ratioP1;P1;durP2;ratioP2;P2;SDS_P1;SDS_P2;PMS_P1;PMS_P2;Temp;Humidity;BMP_temperature;BMP_pressure;BME280_temperature;BME280_humidity;BME280_pressure;Samples;Min_cycle;Max_cycle;Signal;HPM_P1;HPM_P2
2023/01/24 00:00:36;;;;;;;17.33;10.20;;;;;;;0.60;100.00;100109.41;5033838;28;20038;-64
2023/01/24 00:03:22;;;;;;;18.50;10.43;;;;;;;0.60;100.00;100109.41;5040457;28;20134;-64
2023/01/24 00:06:07;;;;;;;15.82;10.05;;;;;;;0.76;100.00;100112.75;5055451;28;20037;-64
2023/01/24 00:08:52;;;;;;;18.85;11.05;;;;;;;0.88;100.00;100119.56;5034535;28;20069;-64
2023/01/24 00:11:37;;;;;;;18.13;10.98;;;;;;;0.71;100.00;100107.63;5047641;28;20116;-64
2023/01/24 00:14:22;;;;;;;19.20;11.70;;;;;;;0.68;100.00;100106.78;5053248;28;20465;-64
2023/01/24 00:17:07;;;;;;;16.58;10.27;;;;;;;0.63;100.00;100101.66;5046035;28;20467;-64
2023/01/24 00:19:52;;;;;;;19.35;11.23;;;;;;;0.58;100.00;100101.69;5052172;28;20056;-65
2023/01/24 00:22:37;;;;;;;19.60;11.95;;;;;;;0.54;100.00;100101.72;5037107;28;20048;-64
2023/01/24 00:25:24;;;;;;;15.38;9.40;;;;;;;0.55;100.00;100100.84;5053930;28;20044;-64
2023/01/24 00:28:08;;;;;;;18.08;10.90;;;;;;;0.58;100.00;100108.56;5053618;28;20041;-64
2023/01/24 00:30:53;;;;;;;16.73;9.88;;;;;;;0.61;100.00;100104.22;5045594;28;20057;-65
2023/01/24 00:33:37;;;;;;;17.13;10.63;;;;;;;0.58;100.00;100106.84;5049334;28;20037;-65
2023/01/24 00:36:22;;;;;;;19.27;11.70;;;;;;;0.53;100.00;100102.56;5019065;28;20037;-65
2023/01/24 00:39:06;;;;;;;18.65;11.30;;;;;;;0.59;100.00;100111.13;5035838;28;20064;-64
2023/01/24 00:41:51;;;;;;;17.27;10.73;;;;;;;0.60;100.00;100111.97;5033586;28;20119;-65
2023/01/24 00:44:36;;;;;;;19.00;11.80;;;;;;;0.53;100.00;100108.56;5035454;28;20041;-66
2023/01/24 00:47:22;;;;;;;21.20;13.00;;;;;;;0.60;100.00;100112.81;5049134;28;20392;-63
2023/01/24 00:50:06;;;;;;;22.98;12.65;;;;;;;0.55;100.00;100119.75;5032198;28;20095;-65
2023/01/24 00:52:51;;;;;;;21.00;12.15;;;;;;;0.59;100.00;100121.44;5031822;28;20461;-64
2023/01/24 00:55:45;;;;;;;21.38;12.52;;;;;;;0.53;100.00;100120.59;5034797;28;20052;-64
2023/01/24 00:58:32;;;;;;;21.73;12.98;;;;;;;0.46;100.00;100122.34;5034160;28;20052;-63
2023/01/24 01:01:16;;;;;;;22.80;13.65;;;;;;;0.55;100.00;100116.31;5034626;28;20076;-64
2023/01/24 01:04:03;;;;;;;20.55;11.55;;;;;;;0.53;100.00;100121.47;5018391;28;20065;-64
2023/01/24 01:06:47;;;;;;;18.70;12.23;;;;;;;0.66;100.00;100117.09;5031785;28;20052;-64
2023/01/24 01:09:33;;;;;;;23.63;12.60;;;;;;;0.56;100.00;100124.03;5032832;28;20044;-63
2023/01/24 01:12:17;;;;;;;21.13;12.13;;;;;;;0.49;100.00;100125.78;5033117;28;20041;-63
2023/01/24 01:15:03;;;;;;;19.48;11.45;;;;;;;0.61;100.00;100119.72;5042071;28;20037;-64
2023/01/24 01:17:48;;;;;;;23.08;13.13;;;;;;;0.60;100.00;100124.88;5046076;28;20503;-64
2023/01/24 01:20:33;;;;;;;22.20;12.35;;;;;;;0.53;100.00;100118.91;5036130;28;20487;-66
2023/01/24 01:23:17;;;;;;;19.67;11.13;;;;;;;0.72;100.00;100129.09;5051911;28;20080;-64
2023/01/24 01:26:06;;;;;;;20.17;12.35;;;;;;;0.76;100.00;100129.94;5050823;28;20499;-64
2023/01/24 01:28:52;;;;;;;17.67;11.02;;;;;;;0.83;100.00;100135.03;5052847;28;20063;-63
2023/01/24 01:31:37;;;;;;;18.65;10.95;;;;;;;0.97;100.00;100134.97;5051862;28;20047;-63
2023/01/24 01:34:21;;;;;;;19.60;11.07;;;;;;;1.03;100.00;100130.63;5038234;28;20052;-64
2023/01/24 01:37:06;;;;;;;19.63;11.50;;;;;;;1.14;100.00;100139.16;5003926;28;20132;-64
2023/01/24 01:39:51;;;;;;;24.40;12.63;;;;;;;1.07;100.00;100135.75;5041039;28;20403;-65
2023/01/24 01:42:54;;;;;;;21.15;12.88;;;;;;;1.00;100.00;100143.56;5053064;28;20047;-65
2023/01/24 01:45:41;;;;;;;25.52;14.00;;;;;;;0.79;100.00;100135.94;5054484;28;20052;-65
2023/01/24 01:48:43;;;;;;;23.25;13.48;;;;;;;0.89;100.00;100144.47;5054013;28;20123;-64
2023/01/24 01:51:37;;;;;;;19.77;12.23;;;;;;;0.86;100.00;100141.94;5051011;28;20466;-64
2023/01/24 01:54:37;;;;;;;21.92;13.13;;;;;;;0.91;100.00;100154.81;5039312;28;20124;-64
2023/01/24 01:57:27;;;;;;;19.50;11.77;;;;;;;1.00;100.00;100153.91;5050105;28;20087;-63
2023/01/24 02:00:16;;;;;;;17.88;11.38;;;;;;;1.00;100.00;100148.72;5036306;28;20079;-63
2023/01/24 02:06:38;;;;;;;22.92;12.95;;;;;;;1.25;100.00;100156.28;5035899;28;20044;-63
2023/01/24 02:09:28;;;;;;;22.13;12.68;;;;;;;1.15;100.00;100158.94;5053986;28;20128;-63
2023/01/24 02:12:38;;;;;;;19.60;10.85;;;;;;;1.14;100.00;100158.94;5039622;28;20034;-63
2023/01/24 02:18:27;;;;;;;20.75;12.00;;;;;;;1.16;100.00;100159.81;5039095;28;20044;-63
2023/01/24 02:21:16;;;;;;;20.13;11.65;;;;;;;1.27;100.00;100162.28;5050781;28;20087;-64
2023/01/24 02:24:16;;;;;;;20.90;12.00;;;;;;;1.30;100.00;100162.28;5051435;28;20483;-64
2023/01/24 02:27:00;;;;;;;20.00;11.32;;;;;;;1.30;100.00;100165.72;5016595;28;20045;-64
2023/01/24 02:29:46;;;;;;;19.95;11.55;;;;;;;1.33;100.00;100165.69;5031150;28;20045;-63
2023/01/24 02:32:31;;;;;;;17.98;10.98;;;;;;;1.32;100.00;100163.97;5034217;28;20038;-63
2023/01/24 02:35:32;;;;;;;18.98;11.40;;;;;;;1.30;100.00;100173.47;5045691;28;20045;-63
2023/01/24 02:38:22;;;;;;;20.98;12.30;;;;;;;1.26;100.00;100164.00;5031402;28;20037;-64
2023/01/24 02:41:08;;;;;;;19.25;11.23;;;;;;;1.22;100.00;100168.34;5032487;28;20568;-64
2023/01/24 02:43:56;;;;;;;19.83;11.57;;;;;;;1.30;100.00;100163.13;5031300;28;20128;-63
2023/01/24 02:46:44;;;;;;;19.55;11.98;;;;;;;1.23;100.00;100172.66;5039761;28;20070;-65
2023/01/24 02:49:28;;;;;;;16.17;10.20;;;;;;;1.38;100.00;100167.38;5052584;28;20107;-64
2023/01/24 02:55:16;;;;;;;18.30;10.88;;;;;;;1.59;100.00;100168.91;5052385;28;20059;-65
2023/01/24 02:58:07;;;;;;;19.20;10.40;;;;;;;1.52;100.00;100173.28;5035903;28;20407;-65
2023/01/24 03:00:56;;;;;;;18.35;11.25;;;;;;;1.52;100.00;100168.09;5024961;28;20048;-67
2023/01/24 03:03:46;;;;;;;17.48;10.70;;;;;;;1.54;100.00;100178.41;5022865;28;20401;-64
2023/01/24 03:06:31;;;;;;;18.65;10.60;;;;;;;1.59;100.00;100177.53;5033432;28;20044;-64
2023/01/24 03:09:33;;;;;;;18.10;10.48;;;;;;;1.53;100.00;100177.59;5032199;28;20385;-64
2023/01/24 03:37:00;;;;;;;18.75;10.55;;;;;;;1.35;100.00;100192.34;5037111;28;20116;-67
2023/01/24 03:39:59;;;;;;;17.00;9.68;;;;;;;1.42;100.00;100192.31;5029929;28;20041;-65
2023/01/24 03:42:48;;;;;;;17.70;9.55;;;;;;;1.38;100.00;100191.47;5033457;28;20033;-66
2023/01/24 03:45:37;;;;;;;16.25;10.65;;;;;;;1.31;100.00;100197.53;5035617;28;20037;-66
2023/01/24 03:48:26;;;;;;;19.27;10.88;;;;;;;1.33;100.00;100198.41;5021990;28;20034;-65
2023/01/24 03:54:14;;;;;;;19.17;10.20;;;;;;;1.06;100.00;100192.56;5034537;28;20037;-65
2023/01/24 03:57:14;;;;;;;17.20;10.02;;;;;;;1.07;100.00;100192.56;5033040;28;20033;-65
2023/01/24 03:59:58;;;;;;;18.33;11.07;;;;;;;0.98;100.00;100195.19;5038899;28;20036;-66
2023/01/24 04:02:43;;;;;;;19.15;10.93;;;;;;;0.77;100.00;100189.28;5062534;28;20038;-68
2023/01/24 04:05:31;;;;;;;16.52;10.45;;;;;;;0.78;100.00;100190.16;5040990;28;20045;-66
2023/01/24 04:08:17;;;;;;;19.00;11.43;;;;;;;0.75;100.00;100192.75;5049679;28;20049;-66
2023/01/24 04:11:01;;;;;;;20.00;10.88;;;;;;;0.88;100.00;100196.97;5036407;28;20037;-66
2023/01/24 04:13:47;;;;;;;17.95;9.98;;;;;;;1.07;100.00;100195.13;5034816;28;20116;-65
2023/01/24 04:16:32;;;;;;;18.45;9.25;;;;;;;1.04;100.00;100195.16;5038748;28;20407;-65
2023/01/24 04:19:37;;;;;;;15.50;9.18;;;;;;;1.13;100.00;100199.38;5055925;28;20037;-65
2023/01/24 04:22:22;;;;;;;20.58;12.43;;;;;;;0.96;100.00;100196.94;5047450;28;20140;-65
2023/01/24 04:30:16;;;;;;;19.30;10.52;;;;;;;0.52;100.00;100197.16;5046655;28;20052;-64
2023/01/24 04:33:05;;;;;;;17.90;10.27;;;;;;;0.57;100.00;100197.97;5050081;28;20116;-64
2023/01/24 04:35:50;;;;;;;18.40;11.23;;;;;;;0.58;100.00;100202.28;5041355;28;20036;-64
2023/01/24 04:38:35;;;;;;;17.65;11.25;;;;;;;0.55;100.00;100196.25;5035856;28;20358;-65
2023/01/24 04:41:24;;;;;;;15.93;10.13;;;;;;;0.62;100.00;100205.69;5031930;28;20056;-64
2023/01/24 04:44:12;;;;;;;16.15;9.93;;;;;;;0.77;100.00;100209.09;5036627;28;20041;-65
2023/01/24 04:46:56;;;;;;;16.75;9.77;;;;;;;0.75;100.00;100205.63;5054401;28;20079;-64
2023/01/24 04:49:41;;;;;;;17.63;9.65;;;;;;;0.77;100.00;100215.06;5038944;28;20468;-64
2023/01/24 04:52:29;;;;;;;18.45;10.45;;;;;;;0.79;100.00;100218.50;5019332;28;20118;-64
2023/01/24 04:55:22;;;;;;;17.02;11.07;;;;;;;0.69;100.00;100220.28;5034953;28;20045;-64
2023/01/24 04:58:07;;;;;;;17.65;10.77;;;;;;;0.60;100.00;100221.16;5050288;28;20424;-65
2023/01/24 05:00:53;;;;;;;18.95;11.50;;;;;;;0.52;100.00;100225.53;5055106;28;20033;-64
2023/01/24 05:03:38;;;;;;;16.42;10.65;;;;;;;0.49;100.00;100216.06;5037812;28;20076;-64
2023/01/24 05:06:23;;;;;;;22.63;11.50;;;;;;;0.30;100.00;100229.88;5034216;28;20116;-65
2023/01/24 05:09:10;;;;;;;21.67;11.30;;;;;;;0.32;100.00;100228.16;5062078;28;20488;-64
2023/01/24 05:12:06;;;;;;;17.50;8.88;;;;;;;0.49;100.00;100225.50;5035233;28;20034;-62
2023/01/24 05:14:51;;;;;;;18.42;11.27;;;;;;;0.71;100.00;100230.59;5034026;28;20037;-64
2023/01/24 05:17:36;;;;;;;18.17;10.82;;;;;;;0.59;100.00;100227.19;5020691;28;20059;-60
2023/01/24 05:20:21;;;;;;;19.15;10.07;;;;;;;0.94;100.00;100229.63;5034273;28;20124;-65
2023/01/24 05:23:06;;;;;;;19.52;10.85;;;;;;;1.03;100.00;100234.72;5034068;28;20120;-65
2023/01/24 05:25:59;;;;;;;18.73;10.68;;;;;;;1.11;100.00;100232.09;5033640;28;20048;-63
2023/01/24 05:28:45;;;;;;;16.45;9.98;;;;;;;1.08;100.00;100237.28;5037409;28;20037;-64
2023/01/24 05:31:31;;;;;;;18.08;10.35;;;;;;;1.01;100.00;100239.06;5032278;28;20049;-63
2023/01/24 05:34:17;;;;;;;18.65;11.00;;;;;;;0.95;100.00;100233.91;5031027;28;20042;-68
2023/01/24 05:37:02;;;;;;;14.82;8.43;;;;;;;1.41;100.00;100234.50;5033601;28;20057;-65
2023/01/24 05:39:48;;;;;;;19.73;10.88;;;;;;;1.46;100.00;100241.34;5032764;28;20044;-65
2023/01/24 05:42:33;;;;;;;19.10;11.00;;;;;;;0.87;100.00;100246.84;5006453;28;20041;-65
2023/01/24 05:45:18;;;;;;;19.10;10.93;;;;;;;1.00;100.00;100247.66;5031835;28;20132;-65
2023/01/24 05:48:02;;;;;;;17.50;10.38;;;;;;;0.91;100.00;100256.31;5018977;28;20033;-65
2023/01/24 05:50:48;;;;;;;16.98;10.15;;;;;;;0.87;100.00;100249.44;5036469;28;20072;-66
2023/01/24 05:53:34;;;;;;;20.20;11.05;;;;;;;0.93;100.00;100248.56;5053030;28;20082;-66
2023/01/24 05:56:20;;;;;;;19.30;11.40;;;;;;;0.86;100.00;100252.91;5051379;28;20051;-66
2023/01/24 05:59:05;;;;;;;18.42;11.07;;;;;;;0.84;100.00;100257.19;5037542;28;20052;-65
2023/01/24 06:01:50;;;;;;;18.35;10.98;;;;;;;1.18;100.00;100257.03;5033049;28;20120;-66
2023/01/24 06:04:37;;;;;;;21.10;12.77;;;;;;;1.18;100.00;100256.16;5051508;28;20045;-66
2023/01/24 06:07:22;;;;;;;19.35;11.55;;;;;;;1.11;100.00;100255.34;5039059;28;20112;-70
2023/01/24 06:10:07;;;;;;;19.33;10.73;;;;;;;1.00;100.00;100262.31;5018523;28;20041;-64
2023/01/24 06:13:03;;;;;;;18.40;10.57;;;;;;;0.96;100.00;100262.28;5032972;28;20044;-66
2023/01/24 06:15:49;;;;;;;19.60;11.57;;;;;;;1.15;100.00;100262.22;5041823;28;20086;-66
2023/01/24 06:18:34;;;;;;;17.88;9.85;;;;;;;1.33;100.00;100266.41;5038728;28;20436;-67
2023/01/24 06:21:28;;;;;;;20.50;11.60;;;;;;;1.44;100.00;100268.91;5037265;28;20187;-65
2023/01/24 06:24:36;;;;;;;17.45;10.77;;;;;;;1.52;100.00;100268.84;5029723;28;20055;-68
2023/01/24 06:27:40;;;;;;;15.93;9.25;;;;;;;1.95;100.00;100279.72;5070482;28;20052;-66
2023/01/24 06:30:25;;;;;;;18.08;10.18;;;;;;;1.97;100.00;100289.19;5057168;28;20048;-67
2023/01/24 06:33:36;;;;;;;19.20;10.48;;;;;;;1.64;100.00;100290.31;5057126;28;20044;-68
2023/01/24 06:36:43;;;;;;;13.48;8.27;;;;;;;1.46;100.00;100292.16;5050213;28;20484;-67
2023/01/24 06:39:28;;;;;;;19.45;10.63;;;;;;;1.53;100.00;100303.31;5050541;28;20472;-67
2023/01/24 06:42:13;;;;;;;15.90;9.13;;;;;;;1.55;100.00;100310.16;5040448;28;20041;-66
2023/01/24 06:44:57;;;;;;;17.80;10.90;;;;;;;1.43;100.00;100310.25;5069485;28;20045;-66
2023/01/24 06:47:43;;;;;;;15.95;10.00;;;;;;;1.20;100.00;100322.44;5056616;28;20045;-65
2023/01/24 06:50:31;;;;;;;21.27;12.63;;;;;;;0.71;100.00;100324.34;5051268;28;20043;-66
2023/01/24 06:53:17;;;;;;;20.50;10.68;;;;;;;0.77;100.00;100322.63;5036900;28;20435;-67
2023/01/24 06:56:01;;;;;;;21.20;12.00;;;;;;;0.83;100.00;100328.59;5054778;28;20080;-67
2023/01/24 06:58:47;;;;;;;22.58;12.38;;;;;;;0.81;100.00;100332.91;5066748;28;20040;-66
2023/01/24 07:01:31;;;;;;;22.75;12.30;;;;;;;0.41;100.00;100330.44;5056985;28;20064;-64
2023/01/24 07:04:16;;;;;;;21.25;11.68;;;;;;;0.70;100.00;100329.50;5049098;28;20049;-67
2023/01/24 07:07:01;;;;;;;19.33;11.27;;;;;;;0.77;100.00;100332.94;5024328;28;20103;-67
2023/01/24 07:09:47;;;;;;;22.23;13.00;;;;;;;0.73;100.00;100337.25;5037186;28;20049;-66
2023/01/24 07:12:32;;;;;;;19.48;12.10;;;;;;;0.56;100.00;100332.97;5042318;28;20460;-64
2023/01/24 07:15:17;;;;;;;18.90;11.07;;;;;;;0.71;100.00;100339.81;5049957;28;20051;-64
2023/01/24 07:18:11;;;;;;;20.88;11.63;;;;;;;0.89;100.00;100338.03;5028345;28;20086;-65
2023/01/24 07:20:56;;;;;;;20.67;12.43;;;;;;;0.95;100.00;100345.75;5054897;28;20174;-65
2023/01/24 07:23:46;;;;;;;17.40;9.90;;;;;;;1.04;100.00;100344.88;5054989;28;20530;-64
2023/01/24 07:26:31;;;;;;;20.92;12.88;;;;;;;0.96;100.00;100352.63;5040026;28;20052;-65
2023/01/24 07:29:19;;;;;;;22.27;11.52;;;;;;;0.92;100.00;100353.53;5050088;28;20128;-65
2023/01/24 07:32:04;;;;;;;20.63;12.45;;;;;;;0.82;100.00;100356.97;5033102;28;20072;-64
2023/01/24 07:34:48;;;;;;;19.48;11.93;;;;;;;1.03;100.00;100355.22;5047944;28;20041;-65
2023/01/24 07:37:33;;;;;;;18.42;11.55;;;;;;;1.13;100.00;100361.22;5039801;28;20129;-65
2023/01/24 07:40:18;;;;;;;22.30;12.63;;;;;;;1.31;100.00;100362.81;5037177;28;20096;-64
2023/01/24 07:43:04;;;;;;;22.35;12.82;;;;;;;1.34;100.00;100366.25;5021554;28;20526;-65
2023/01/24 07:45:48;;;;;;;20.38;12.60;;;;;;;0.76;100.00;100372.47;5035120;28;20480;-65
2023/01/24 07:48:34;;;;;;;20.13;12.35;;;;;;;0.96;100.00;100375.03;5048069;28;20038;-65
2023/01/24 07:51:19;;;;;;;21.67;13.02;;;;;;;1.06;100.00;100375.84;5035980;28;20037;-65
2023/01/24 07:54:03;;;;;;;26.55;13.93;;;;;;;1.03;100.00;100371.53;5051210;28;20040;-66
2023/01/24 07:56:48;;;;;;;26.20;13.02;;;;;;;1.10;100.00;100375.84;5054483;28;20123;-65
2023/01/24 07:59:33;;;;;;;22.05;12.25;;;;;;;1.02;100.00;100375.00;5052947;28;20037;-67
2023/01/24 08:02:18;;;;;;;22.60;12.98;;;;;;;1.25;100.00;100371.47;5042466;28;20053;-68
2023/01/24 08:05:03;;;;;;;22.77;12.75;;;;;;;1.28;100.00;100383.50;5034175;28;20072;-65
2023/01/24 08:07:48;;;;;;;24.30;12.02;;;;;;;1.52;100.00;100384.28;5050866;28;20048;-65
2023/01/24 08:10:33;;;;;;;23.75;12.32;;;;;;;2.53;100.00;100388.69;5034080;28;20412;-66
2023/01/24 08:13:21;;;;;;;22.40;11.63;;;;;;;2.59;100.00;100386.06;5033165;28;20033;-67
2023/01/24 08:16:07;;;;;;;22.60;11.88;;;;;;;2.54;100.00;100389.56;5024550;28;20048;-65
2023/01/24 08:18:53;;;;;;;20.90;11.65;;;;;;;2.70;100.00;100401.50;5028997;28;20496;-66
2023/01/24 08:21:37;;;;;;;20.15;11.77;;;;;;;2.79;100.00;100386.75;5034520;28;20041;-65
2023/01/24 08:24:23;;;;;;;21.85;12.70;;;;;;;3.03;100.00;100393.41;5049691;28;20391;-66
2023/01/24 08:27:08;;;;;;;22.67;12.65;;;;;;;3.18;100.00;100394.09;5053978;28;20041;-67
2023/01/24 08:29:53;;;;;;;19.10;10.55;;;;;;;2.63;100.00;100399.00;5048423;28;20464;-66
2023/01/24 08:32:38;;;;;;;20.48;10.63;;;;;;;3.67;100.00;100392.59;5034735;28;20520;-66
2023/01/24 08:35:23;;;;;;;17.63;10.50;;;;;;;4.53;100.00;100399.06;5033937;28;20056;-64
2023/01/24 08:38:08;;;;;;;19.38;10.00;;;;;;;4.88;100.00;100395.88;5035117;28;20311;-62
2023/01/24 08:40:52;;;;;;;17.95;11.45;;;;;;;4.54;97.78;100400.78;5034350;28;20045;-64
2023/01/24 08:43:37;;;;;;;17.77;9.38;;;;;;;4.76;99.66;100400.41;5048601;28;20102;-62
2023/01/24 08:46:22;;;;;;;18.40;11.27;;;;;;;4.88;96.30;100399.28;5037216;28;20033;-64
2023/01/24 08:49:07;;;;;;;17.85;10.32;;;;;;;5.04;93.29;100407.66;5046100;28;20033;-63
2023/01/24 08:51:58;;;;;;;19.75;9.90;;;;;;;5.60;100.00;100397.03;5043358;28;20090;-64
2023/01/24 08:54:43;;;;;;;19.50;9.77;;;;;;;5.64;91.41;100409.94;5036785;28;20072;-63
2023/01/24 08:57:28;;;;;;;16.17;9.73;;;;;;;6.20;91.08;100415.63;5049136;28;20045;-64
2023/01/24 09:00:14;;;;;;;16.48;9.75;;;;;;;5.93;88.90;100415.34;5034205;28;20116;-64
2023/01/24 09:03:00;;;;;;;18.15;10.80;;;;;;;6.59;86.08;100419.91;5033481;28;20038;-63
2023/01/24 09:05:45;;;;;;;17.45;10.73;;;;;;;6.72;81.99;100417.84;5033682;28;20045;-62
2023/01/24 09:08:30;;;;;;;18.52;11.05;;;;;;;6.71;80.96;100420.47;5032360;28;20049;-63
2023/01/24 09:11:15;;;;;;;19.48;11.73;;;;;;;6.63;80.05;100434.53;5040072;28;20116;-62
2023/01/24 09:14:00;;;;;;;20.27;11.90;;;;;;;6.05;82.07;100437.69;5052793;28;20095;-60
2023/01/24 09:16:45;;;;;;;21.63;12.75;;;;;;;6.19;83.06;100434.75;5046144;28;20120;-62
2023/01/24 09:19:30;;;;;;;22.17;12.38;;;;;;;6.56;78.31;100432.16;5040953;28;20048;-64
2023/01/24 09:22:15;;;;;;;23.20;12.50;;;;;;;6.60;79.89;100432.03;5034085;28;20037;-61
2023/01/24 09:25:01;;;;;;;21.33;11.65;;;;;;;7.38;75.64;100435.16;5034992;28;20045;-64
2023/01/24 09:27:53;;;;;;;22.67;12.75;;;;;;;7.83;74.19;100440.84;5033685;28;20099;-60
2023/01/24 09:31:31;;;;;;;18.58;12.32;;;;;;;8.12;72.32;100438.22;5053157;28;20068;-60
2023/01/24 09:34:17;;;;;;;17.73;9.98;;;;;;;9.03;89.54;100433.50;5039878;28;20044;-63
2023/01/24 09:37:03;;;;;;;26.20;12.25;;;;;;;9.89;67.89;100451.28;5039687;28;20041;-64
2023/01/24 09:39:48;;;;;;;23.10;11.85;;;;;;;10.35;69.57;100443.34;5054488;28;20068;-63
2023/01/24 09:42:51;;;;;;;21.40;11.60;;;;;;;9.96;64.43;100439.66;5051447;28;20110;-62
2023/01/24 09:45:45;;;;;;;20.27;12.23;;;;;;;9.31;67.99;100445.56;5040396;28;20114;-62
2023/01/24 09:48:29;;;;;;;21.15;11.43;;;;;;;7.91;71.75;100445.81;5040418;28;20075;-63
2023/01/24 09:51:21;;;;;;;19.35;11.38;;;;;;;9.22;68.81;100441.53;5043820;28;20476;-63
2023/01/24 09:54:05;;;;;;;26.02;13.57;;;;;;;8.87;66.60;100438.41;5032415;28;20045;-63
2023/01/24 09:56:51;;;;;;;21.08;12.30;;;;;;;8.66;70.11;100435.63;5034939;28;20065;-63
2023/01/24 09:59:45;;;;;;;19.90;12.68;;;;;;;8.11;73.21;100421.69;5034170;28;20121;-63
2023/01/24 10:02:30;;;;;;;24.15;12.15;;;;;;;8.38;71.00;100421.72;5033468;28;20084;-63
2023/01/24 10:05:16;;;;;;;20.45;11.73;;;;;;;8.13;69.50;100413.78;5033219;28;20049;-63
2023/01/24 10:08:22;;;;;;;19.00;12.07;;;;;;;8.03;71.14;100420.22;5040569;28;20048;-64
2023/01/24 10:11:25;;;;;;;19.83;11.35;;;;;;;7.49;73.81;100434.00;5031619;28;20041;-65
2023/01/24 10:14:41;;;;;;;22.45;12.35;;;;;;;8.43;70.36;100424.16;5034360;28;20076;-63
2023/01/24 10:17:47;;;;;;;24.05;14.20;;;;;;;8.97;72.68;100426.72;5045725;28;20116;-65
2023/01/24 10:20:44;;;;;;;20.05;11.38;;;;;;;8.98;67.53;100425.81;5052146;28;20361;-62
2023/01/24 10:23:43;;;;;;;20.20;11.93;;;;;;;6.55;76.49;100425.19;5053573;28;20047;-65
2023/01/24 10:26:38;;;;;;;23.70;12.27;;;;;;;6.61;82.51;100428.50;5052264;28;20040;-62
2023/01/24 10:29:29;;;;;;;20.42;11.45;;;;;;;7.76;75.76;100423.63;5053454;28;20128;-60
2023/01/24 10:32:19;;;;;;;19.27;11.15;;;;;;;8.19;73.16;100420.59;5052141;28;20059;-61
2023/01/24 10:35:36;;;;;;;19.23;11.25;;;;;;;8.05;70.96;100413.19;5046114;28;20120;-61
2023/01/24 10:38:21;;;;;;;18.83;11.57;;;;;;;9.16;89.64;100417.34;5032416;28;20053;-62
2023/01/24 10:41:20;;;;;;;19.27;10.82;;;;;;;10.00;73.86;100413.34;5044610;28;20044;-61
2023/01/24 10:44:36;;;;;;;19.50;10.75;;;;;;;9.98;70.77;100402.94;5023321;28;20536;-60
2023/01/24 10:47:50;;;;;;;19.52;12.00;;;;;;;9.04;68.15;100410.81;5026396;28;20118;-59
2023/01/24 10:50:44;;;;;;;17.35;10.75;;;;;;;9.53;68.09;100396.84;5048635;28;20135;-61
2023/01/24 10:53:28;;;;;;;16.02;10.35;;;;;;;9.43;68.20;100394.56;5037100;28;20057;-62
2023/01/24 11:00:30;;;;;;;19.42;11.50;;;;;;;7.15;73.66;100386.28;5029313;28;20096;-60
2023/01/24 11:03:29;;;;;;;19.38;11.25;;;;;;;7.29;74.82;100388.50;5030896;28;20059;-61
2023/01/24 11:06:24;;;;;;;19.95;11.80;;;;;;;8.78;71.13;100378.63;5031288;28;20049;-61
2023/01/24 11:09:11;;;;;;;17.20;10.73;;;;;;;9.80;65.61;100370.50;5038006;28;20037;-61
2023/01/24 11:11:58;;;;;;;21.77;13.00;;;;;;;9.29;65.07;100371.53;5049006;28;20102;-60
2023/01/24 11:14:48;;;;;;;19.00;10.52;;;;;;;8.91;68.61;100376.44;5050804;28;20095;-60
2023/01/24 11:17:36;;;;;;;19.08;11.45;;;;;;;8.84;67.64;100363.59;5050851;28;20380;-60
2023/01/24 11:20:32;;;;;;;19.48;11.57;;;;;;;9.58;66.73;100366.94;5029403;28;20575;-63
2023/01/24 11:24:07;;;;;;;18.13;11.07;;;;;;;10.62;63.33;100366.31;5031856;28;20050;-61
2023/01/24 11:26:54;;;;;;;20.58;11.68;;;;;;;11.14;61.20;100361.44;5033352;28;20045;-61
2023/01/24 11:29:39;;;;;;;20.90;12.13;;;;;;;11.30;59.88;100364.19;5018489;28;20076;-62
2023/01/24 11:32:32;;;;;;;22.13;13.40;;;;;;;11.44;59.79;100351.28;5033687;28;20056;-62
2023/01/24 11:35:28;;;;;;;20.13;11.77;;;;;;;10.56;61.90;100348.25;5033103;28;20494;-61
2023/01/24 11:38:22;;;;;;;19.38;11.85;;;;;;;9.56;65.32;100347.88;5033372;28;20096;-64
2023/01/24 11:41:20;;;;;;;19.65;11.40;;;;;;;7.67;71.04;100338.66;5032927;28;20072;-63
2023/01/24 11:44:31;;;;;;;21.83;12.90;;;;;;;7.11;73.88;100349.03;5033939;28;20452;-61
2023/01/24 11:47:34;;;;;;;19.80;11.60;;;;;;;8.09;72.77;100339.97;5007216;28;20065;-60
2023/01/24 11:50:44;;;;;;;19.75;11.60;;;;;;;8.43;69.18;100330.13;5019405;28;20072;-61
2023/01/24 11:53:50;;;;;;;;;;;;;;;;;;;;;
2023/01/24 11:56:49;;;;;;;19.65;11.23;;;;;;;8.01;72.29;100329.75;5056391;28;20037;-60
2023/01/24 12:00:20;;;;;;;18.42;10.82;;;;;;;7.93;71.89;100326.53;5036968;28;20078;-61
2023/01/24 12:03:26;;;;;;;22.08;11.82;;;;;;;6.35;76.65;100327.66;5049343;28;20046;-65
2023/01/24 12:06:22;;;;;;;21.80;11.35;;;;;;;7.05;76.56;100320.53;5051372;28;20071;-60
2023/01/24 12:09:22;;;;;;;19.48;11.45;;;;;;;6.57;76.55;100320.13;5054406;28;20889;-62
2023/01/24 12:17:45;;;;;;;19.73;11.68;;;;;;;7.11;74.43;100298.66;5054819;28;20071;-60
2023/01/24 12:20:48;;;;;;;17.98;10.35;;;;;;;8.32;70.40;100293.97;5020663;28;20127;-60
2023/01/24 12:23:37;;;;;;;17.58;10.30;;;;;;;8.79;68.65;100301.94;5041034;28;20195;-62
2023/01/24 12:26:27;;;;;;;16.45;11.00;;;;;;;8.66;68.54;100305.00;5034211;28;20065;-61
2023/01/24 12:29:23;;;;;;;18.27;10.57;;;;;;;8.08;69.49;100303.47;5021498;28;20453;-60
2023/01/24 12:32:15;;;;;;;18.08;10.77;;;;;;;7.30;73.54;100305.91;5053447;28;20057;-60
2023/01/24 12:35:25;;;;;;;20.27;11.45;;;;;;;6.39;76.26;100318.84;5019697;28;20131;-61
2023/01/24 12:38:17;;;;;;;20.63;11.85;;;;;;;6.72;77.38;100328.41;5042857;28;20045;-61
2023/01/24 12:41:04;;;;;;;25.85;11.98;;;;;;;6.86;76.58;100321.06;5035157;28;20041;-60
2023/01/24 12:44:11;;;;;;;18.13;11.10;;;;;;;7.02;75.56;100321.47;5026165;28;20452;-59
2023/01/24 12:47:13;;;;;;;18.77;11.00;;;;;;;6.04;77.82;100322.31;5035893;28;20091;-60
2023/01/24 12:50:20;;;;;;;19.48;11.80;;;;;;;6.07;81.22;100310.13;5039595;28;20036;-60
2023/01/24 12:53:23;;;;;;;18.63;11.27;;;;;;;7.38;74.83;100311.75;5041572;28;20108;-59
2023/01/24 12:56:22;;;;;;;18.73;11.63;;;;;;;6.24;79.22;100309.69;5034034;28;20045;-60
2023/01/24 12:59:24;;;;;;;16.92;10.82;;;;;;;7.32;74.62;100309.31;5034538;28;20064;-64
2023/01/24 13:02:39;;;;;;;18.20;10.15;;;;;;;8.08;71.29;100304.31;5034869;28;20033;-60
2023/01/24 13:05:47;;;;;;;18.25;10.43;;;;;;;8.21;69.91;100307.34;5051821;28;20040;-59
2023/01/24 13:09:05;;;;;;;16.52;10.45;;;;;;;8.04;70.44;100302.72;5028519;28;20139;-60
2023/01/24 13:12:14;;;;;;;15.60;9.75;;;;;;;8.17;70.94;100308.38;5044676;28;20041;-61
2023/01/24 13:15:04;;;;;;;15.38;9.70;;;;;;;7.82;70.27;100308.63;5037498;28;20033;-60
2023/01/24 13:18:15;;;;;;;18.83;10.27;;;;;;;7.23;72.45;100315.69;5040996;28;20042;-59
2023/01/24 13:21:21;;;;;;;17.85;9.98;;;;;;;6.69;74.31;100318.91;5033176;28;20659;-59
2023/01/24 13:24:28;;;;;;;18.45;10.73;;;;;;;6.62;76.26;100327.81;5036429;28;20452;-59
2023/01/24 13:27:24;;;;;;;15.77;10.10;;;;;;;5.02;81.57;100322.84;5034917;28;20052;-58
2023/01/24 13:30:31;;;;;;;19.25;10.93;;;;;;;5.12;83.19;100321.78;5032275;28;20393;-58
2023/01/24 13:33:22;;;;;;;19.48;10.95;;;;;;;5.03;83.49;100311.56;5045195;28;20518;-61
2023/01/24 13:36:08;;;;;;;17.20;10.00;;;;;;;5.31;81.49;100310.97;5054633;28;20372;-61
2023/01/24 13:38:52;;;;;;;16.23;9.73;;;;;;;4.26;85.63;100312.16;5053605;28;20476;-60
2023/01/24 13:41:38;;;;;;;16.35;10.40;;;;;;;3.81;88.62;100304.25;5054569;28;20368;-60
2023/01/24 13:44:29;;;;;;;15.70;9.82;;;;;;;4.46;86.10;100314.38;5054078;28;20041;-59
2023/01/24 13:47:15;;;;;;;15.77;9.83;;;;;;;4.58;84.94;100333.22;5052874;28;20105;-60
2023/01/24 13:50:03;;;;;;;23.35;13.90;;;;;;;4.55;85.20;100334.13;5051903;28;20044;-61
2023/01/24 13:52:56;;;;;;;15.98;10.88;;;;;;;5.25;84.32;100342.31;5031102;28;20073;-59